Burkburnett, Texas
Current Conditions -  °F | °C
As of 9:52 AM on Friday 28 Nov 2014 (Local Time) from KSPS Reporting Station
Clear Clear  
Wind Chill: 54°   Ceiling: Unl
Heat Index: 54°   Visibility: 10mi
Dew Point: 38°   Wind: 21mph
Humidity: 55%   Direction: 210°SSW
Pressure: 30.11"   Gusts: NA
Location:  34.08°N, 98.56°W
Report Text: KSPS 281552Z AUTO 21018KT 10SM CLR 12/03 A3011 RMK AO2 SLP196 T01220033 TSNO
Loading
Personal Weather Stations






























Interactive Weather Map New forecast layout! Learn more

10-Day Weather Forecast

Advertisements
Track Severe Weather on mobile